Time;durP1;ratioP1;P1;durP2;ratioP2;P2;SDS_P1;SDS_P2;PMS_P1;PMS_P2;Temp;Humidity;BMP_temperature;BMP_pressure;BME280_temperature;BME280_humidity;BME280_pressure;Samples;Min_cycle;Max_cycle;Signal;HPM_P1;HPM_P2
2024/03/30 00:00:52;;;;;;;12.30;1.40;;;;;;;11.79;76.41;99041.36;111292;1268;195022;-83
2024/03/30 00:03:48;;;;;;;12.10;2.30;;;;;;;11.76;76.10;99036.98;111298;1268;22899;-83
2024/03/30 00:06:39;;;;;;;9.40;1.40;;;;;;;11.74;76.60;99034.98;111436;1268;22163;-83
2024/03/30 00:09:29;;;;;;;10.80;1.30;;;;;;;11.69;76.68;99034.33;111543;1263;22281;-83
2024/03/30 00:12:20;;;;;;;10.90;1.20;;;;;;;11.67;76.59;99039.89;111512;1267;22216;-83
2024/03/30 00:15:11;;;;;;;13.20;1.40;;;;;;;11.66;76.74;99040.35;111562;1264;22251;-83
2024/03/30 00:18:02;;;;;;;6.00;1.10;;;;;;;11.64;77.17;99040.34;111554;1263;22823;-83
2024/03/30 00:20:52;;;;;;;10.90;1.40;;;;;;;11.62;77.07;99038.16;111553;1260;22213;-83
2024/03/30 00:23:43;;;;;;;13.10;1.60;;;;;;;11.61;77.68;99032.52;111246;1267;22184;-83
2024/03/30 00:26:34;;;;;;;17.30;1.70;;;;;;;11.58;77.57;99037.10;111283;1266;22239;-83
2024/03/30 00:29:26;;;;;;;13.40;2.10;;;;;;;11.56;77.94;99034.66;111282;1265;22256;-82
2024/03/30 00:32:16;;;;;;;5.60;1.30;;;;;;;11.55;78.05;99031.77;111124;1267;22350;-83
2024/03/30 00:35:05;;;;;;;;;;;;;;;11.54;78.22;99029.09;111259;1267;23243;-83
2024/03/30 00:37:56;;;;;;;13.30;1.60;;;;;;;11.52;78.23;99030.88;111527;1267;22978;-83
2024/03/30 00:40:47;;;;;;;10.10;1.50;;;;;;;11.52;78.13;99028.95;111570;1267;23003;-82
2024/03/30 00:43:37;;;;;;;10.50;1.80;;;;;;;11.52;77.91;99027.52;111531;1260;22196;-83
2024/03/30 00:46:28;;;;;;;9.20;1.50;;;;;;;11.52;77.89;99029.52;111308;1260;22246;-84
2024/03/30 00:49:17;;;;;;;;;;;;;;;11.51;77.83;99033.77;111544;1260;22387;-83
2024/03/30 00:52:08;;;;;;;11.40;1.50;;;;;;;11.49;77.97;99028.04;111271;1267;22285;-84
2024/03/30 00:54:59;;;;;;;15.10;1.30;;;;;;;11.47;77.68;99029.08;111430;1267;22287;-84
2024/03/30 00:57:51;;;;;;;11.30;1.60;;;;;;;11.45;77.59;99026.33;111352;1267;23464;-83
2024/03/30 01:00:42;;;;;;;12.90;2.10;;;;;;;11.45;77.79;99025.16;111453;1268;22214;-81
2024/03/30 01:03:34;;;;;;;9.10;1.50;;;;;;;11.44;77.72;99024.05;111616;1267;23164;-82
2024/03/30 01:06:25;;;;;;;12.80;1.60;;;;;;;11.42;77.53;99027.31;111288;1267;22183;-83
2024/03/30 01:09:15;;;;;;;;;;;;;;;11.38;77.59;99021.22;111640;1267;22361;-83
2024/03/30 01:12:07;;;;;;;9.80;1.70;;;;;;;11.33;78.00;99019.92;111591;1260;22229;-82
2024/03/30 01:15:00;;;;;;;9.70;1.70;;;;;;;11.27;77.91;99015.84;111318;1266;22194;-81
2024/03/30 01:17:53;;;;;;;14.30;1.60;;;;;;;11.24;78.12;99017.01;111329;1267;22139;-83
2024/03/30 01:20:45;;;;;;;9.50;1.10;;;;;;;11.20;78.12;99018.75;111550;1263;22333;-83
2024/03/30 01:23:39;;;;;;;14.60;1.90;;;;;;;11.18;78.39;99019.06;111265;1267;22210;-83
2024/03/30 01:26:32;;;;;;;9.70;1.30;;;;;;;11.12;78.78;99020.65;111587;1262;22233;-83
2024/03/30 01:29:26;;;;;;;8.70;1.40;;;;;;;11.08;78.89;99028.54;111571;1263;22208;-84
2024/03/30 01:32:19;;;;;;;13.80;1.70;;;;;;;11.06;78.94;99032.10;111571;1263;22178;-83
2024/03/30 01:35:14;;;;;;;12.60;1.80;;;;;;;11.04;79.40;99036.32;111278;1262;22308;-83
2024/03/30 01:38:05;;;;;;;10.00;1.30;;;;;;;11.03;79.14;99028.80;111581;1267;22220;-83
2024/03/30 01:40:56;;;;;;;10.70;1.90;;;;;;;11.01;79.22;99019.56;111326;1266;22155;-83
2024/03/30 01:43:46;;;;;;;10.10;1.70;;;;;;;11.00;79.46;99013.05;111613;1263;23141;-83
2024/03/30 01:46:35;;;;;;;;;;;;;;;10.98;79.79;99011.29;111573;1263;22504;-83
2024/03/30 01:49:26;;;;;;;12.30;2.00;;;;;;;10.95;79.77;99015.41;111262;1267;22268;-83
2024/03/30 01:52:20;;;;;;;12.50;1.80;;;;;;;10.94;79.68;99016.94;111552;1259;22349;-83
2024/03/30 01:55:12;;;;;;;11.30;1.50;;;;;;;10.93;80.03;99020.34;111596;1256;24249;-83
2024/03/30 01:58:03;;;;;;;12.60;1.90;;;;;;;10.92;80.09;99022.17;111578;1267;22171;-84
2024/03/30 02:00:58;;;;;;;12.00;1.60;;;;;;;10.90;80.06;99021.31;111408;1268;22469;-82
2024/03/30 02:03:50;;;;;;;10.70;1.60;;;;;;;10.90;80.31;99019.08;111426;1268;23413;-83
2024/03/30 02:06:41;;;;;;;11.70;1.60;;;;;;;10.87;80.32;99020.96;111266;1268;22408;-82
2024/03/30 02:09:32;;;;;;;16.40;2.30;;;;;;;10.85;80.42;99024.02;111578;1267;22935;-83
2024/03/30 02:12:24;;;;;;;12.80;2.10;;;;;;;10.83;80.37;99022.23;111228;1267;22239;-82
2024/03/30 02:15:15;;;;;;;12.10;1.70;;;;;;;10.79;80.53;99031.02;111225;1267;22281;-82
2024/03/30 02:18:06;;;;;;;12.40;2.30;;;;;;;10.76;80.55;99039.40;111286;1266;22317;-83
2024/03/30 02:20:57;;;;;;;12.40;1.90;;;;;;;10.74;80.55;99033.00;111521;1263;22192;-83
2024/03/30 02:23:47;;;;;;;7.40;1.50;;;;;;;10.73;80.73;99031.64;111539;1263;22300;-83
2024/03/30 02:26:36;;;;;;;;;;;;;;;10.71;81.01;99039.66;111422;1265;22458;-83
2024/03/30 02:29:31;;;;;;;10.10;1.60;;;;;;;10.68;80.84;99040.38;111251;1266;22338;-83
2024/03/30 02:32:21;;;;;;;17.40;2.80;;;;;;;10.65;80.93;99047.84;111304;1265;22329;-82
2024/03/30 02:35:10;;;;;;;;;;;;;;;10.63;80.77;99050.72;111336;1259;22452;-83
2024/03/30 02:38:02;;;;;;;8.10;1.40;;;;;;;10.60;80.46;99044.27;111554;1260;22167;-83
2024/03/30 02:40:56;;;;;;;13.60;2.40;;;;;;;10.59;80.63;99042.30;111543;1263;23112;-83
2024/03/30 02:43:46;;;;;;;10.40;1.70;;;;;;;10.57;80.54;99040.27;111185;1267;22947;-82
2024/03/30 02:46:37;;;;;;;10.90;1.80;;;;;;;10.55;80.86;99051.70;111568;1263;22186;-82
2024/03/30 02:49:29;;;;;;;8.60;1.60;;;;;;;10.52;81.02;99050.54;111542;1266;22996;-83
2024/03/30 02:52:19;;;;;;;7.70;1.50;;;;;;;10.48;80.60;99048.70;111276;1261;23207;-83
2024/03/30 02:55:10;;;;;;;7.30;1.70;;;;;;;10.46;80.61;99046.98;111546;1260;22218;-83
2024/03/30 02:57:59;;;;;;;;;;;;;;;10.43;80.40;99046.77;111607;1267;22353;-82
2024/03/30 03:00:49;;;;;;;14.00;2.10;;;;;;;10.40;80.61;99042.00;111212;1267;23156;-82
2024/03/30 03:03:40;;;;;;;11.70;2.50;;;;;;;10.37;80.17;99038.14;111583;1267;22132;-83
2024/03/30 03:06:30;;;;;;;13.00;2.00;;;;;;;10.35;80.33;99042.25;111584;1267;23099;-83
2024/03/30 03:09:21;;;;;;;9.30;2.10;;;;;;;10.33;80.35;99038.90;111269;1260;22231;-83
2024/03/30 03:12:10;;;;;;;;;;;;;;;10.31;80.48;99047.68;111588;1263;22424;-83
2024/03/30 03:15:04;;;;;;;13.40;1.80;;;;;;;10.26;80.70;99052.13;111552;1260;23087;-83
2024/03/30 03:17:54;;;;;;;10.70;1.70;;;;;;;10.23;80.50;99046.24;111559;1263;22947;-82
2024/03/30 03:20:45;;;;;;;12.80;1.60;;;;;;;10.20;80.53;99042.40;111580;1263;22221;-82
2024/03/30 03:23:34;;;;;;;;;;;;;;;10.18;80.89;99040.77;111566;1266;22361;-82
2024/03/30 03:26:25;;;;;;;7.10;1.40;;;;;;;10.15;80.92;99036.25;111261;1266;22337;-82
2024/03/30 03:29:14;;;;;;;;;;;;;;;10.15;81.04;99031.84;111477;1266;23195;-83
2024/03/30 03:32:06;;;;;;;11.70;1.50;;;;;;;10.13;81.21;99032.55;111337;1263;22992;-84
2024/03/30 03:34:57;;;;;;;13.40;1.80;;;;;;;10.10;81.47;99036.27;111257;1266;22921;-82
2024/03/30 03:37:48;;;;;;;13.00;1.60;;;;;;;10.08;81.77;99039.60;111266;1266;23097;-83
2024/03/30 03:40:37;;;;;;;;;;;;;;;10.04;82.39;99046.20;111581;1267;22357;-82
2024/03/30 03:43:27;;;;;;;9.90;1.20;;;;;;;9.99;82.40;99052.98;111533;1261;22998;-82
2024/03/30 03:46:16;;;;;;;;;;;;;;;9.95;82.21;99048.55;111565;1260;23306;-82
2024/03/30 03:49:09;;;;;;;7.50;1.50;;;;;;;9.92;81.91;99054.21;111572;1267;23651;-83
2024/03/30 03:52:00;;;;;;;12.10;1.50;;;;;;;9.92;81.75;99050.88;111411;1268;22887;-82
2024/03/30 03:54:51;;;;;;;13.90;1.40;;;;;;;9.91;81.79;99048.64;111231;1268;22286;-82
2024/03/30 03:57:41;;;;;;;11.20;1.50;;;;;;;9.88;81.95;99052.84;111213;1268;22311;-83
2024/03/30 04:00:32;;;;;;;7.20;1.20;;;;;;;9.82;81.82;99057.34;111554;1260;22165;-82
2024/03/30 04:03:23;;;;;;;7.90;1.50;;;;;;;9.79;81.42;99054.59;111570;1261;22213;-82
2024/03/30 04:06:12;;;;;;;;;;;;;;;9.78;81.50;99053.98;111595;1263;22346;-83
2024/03/30 04:09:03;;;;;;;16.70;1.70;;;;;;;9.74;81.51;99048.64;111572;1267;22344;-82
2024/03/30 04:11:54;;;;;;;10.30;2.00;;;;;;;9.72;81.54;99053.96;111585;1267;22219;-83
2024/03/30 04:14:43;;;;;;;;;;;;;;;9.70;81.79;99058.47;111612;1263;22334;-82
2024/03/30 04:17:36;;;;;;;14.30;1.90;;;;;;;9.68;82.20;99057.84;111572;1267;22344;-84
2024/03/30 04:20:27;;;;;;;8.20;1.40;;;;;;;9.66;82.34;99052.21;111593;1267;22288;-87
2024/03/30 04:23:18;;;;;;;8.00;1.30;;;;;;;9.66;82.82;99055.36;111325;1268;22203;-88
2024/03/30 04:26:10;;;;;;;11.50;1.70;;;;;;;9.66;82.86;99058.91;111461;1263;22226;-88
2024/03/30 04:29:02;;;;;;;12.90;1.70;;;;;;;9.65;83.18;99054.80;111313;1266;22122;-88
2024/03/30 04:31:54;;;;;;;8.10;1.40;;;;;;;9.63;83.77;99053.27;111598;1267;22221;-87
2024/03/30 04:34:47;;;;;;;19.00;1.70;;;;;;;9.61;84.43;99056.86;111624;1267;22957;-86
2024/03/30 04:37:39;;;;;;;11.30;1.40;;;;;;;9.61;84.73;99056.70;111358;1262;22210;-86
2024/03/30 04:40:29;;;;;;;11.00;1.50;;;;;;;9.61;85.15;99058.08;111255;1267;23185;-85
2024/03/30 04:43:24;;;;;;;14.50;1.40;;;;;;;9.62;84.90;99055.14;111641;1267;23122;-86
2024/03/30 04:46:16;;;;;;;9.30;1.30;;;;;;;9.63;84.99;99051.82;111274;1261;22284;-85
2024/03/30 04:49:08;;;;;;;5.90;1.10;;;;;;;9.64;85.05;99049.17;111444;1267;23313;-86
2024/03/30 04:52:01;;;;;;;11.10;1.70;;;;;;;9.65;85.14;99045.52;111294;1268;22366;-86
2024/03/30 04:54:52;;;;;;;14.80;2.00;;;;;;;9.66;84.99;99044.71;111306;1268;22265;-86
2024/03/30 04:57:45;;;;;;;12.20;1.50;;;;;;;9.67;84.99;99043.55;111193;1268;22254;-85
2024/03/30 05:00:38;;;;;;;13.70;2.00;;;;;;;9.67;84.94;99045.13;111208;1268;22225;-86
2024/03/30 05:03:31;;;;;;;12.70;2.20;;;;;;;9.67;85.32;99041.69;111219;1267;22175;-85
2024/03/30 05:06:25;;;;;;;10.90;1.80;;;;;;;9.65;85.22;99039.55;111229;1266;22223;-85
2024/03/30 05:09:19;;;;;;;9.20;1.50;;;;;;;9.66;85.44;99034.04;111600;1263;22944;-85
2024/03/30 05:12:11;;;;;;;11.70;1.80;;;;;;;9.67;85.81;99035.05;111596;1256;22316;-86
2024/03/30 05:15:02;;;;;;;12.70;1.70;;;;;;;9.67;85.82;99038.64;111608;1261;23047;-85
2024/03/30 05:17:53;;;;;;;14.90;1.90;;;;;;;9.68;85.88;99039.62;111246;1266;22210;-85
2024/03/30 05:20:57;;;;;;;16.80;3.40;;;;;;;9.69;86.30;99040.38;111301;1267;22365;-84
2024/03/30 05:23:49;;;;;;;17.90;3.70;;;;;;;9.70;86.14;99041.80;111615;1263;22215;-83
2024/03/30 05:26:39;;;;;;;20.80;4.10;;;;;;;9.70;86.09;99043.27;111595;1263;22930;-84
2024/03/30 05:29:30;;;;;;;21.60;3.90;;;;;;;9.71;85.96;99043.38;111312;1267;22177;-83
2024/03/30 05:32:21;;;;;;;18.10;3.40;;;;;;;9.74;85.87;99041.60;111305;1267;22177;-83
2024/03/30 05:35:14;;;;;;;20.80;6.00;;;;;;;9.75;86.17;99034.46;111612;1264;22102;-83
2024/03/30 05:38:05;;;;;;;22.80;4.90;;;;;;;9.77;86.14;99039.48;111582;1264;22332;-83
2024/03/30 05:40:56;;;;;;;18.70;4.90;;;;;;;9.79;86.13;99046.33;111203;1267;22270;-82
2024/03/30 05:43:44;;;;;;;;;;;;;;;9.83;85.93;99054.05;111611;1267;22534;-83
2024/03/30 05:46:35;;;;;;;17.90;4.20;;;;;;;9.85;86.13;99060.23;111618;1263;22156;-82
2024/03/30 05:49:25;;;;;;;16.00;2.70;;;;;;;9.89;86.64;99059.63;111479;1260;22950;-83
2024/03/30 05:52:14;;;;;;;;;;;;;;;9.93;87.14;99057.31;111604;1260;23542;-83
2024/03/30 05:55:06;;;;;;;16.60;3.00;;;;;;;9.95;86.92;99058.04;111595;1267;22224;-83
2024/03/30 05:58:03;;;;;;;16.40;3.10;;;;;;;9.99;87.47;99063.92;111608;1267;22255;-84
2024/03/30 06:00:55;;;;;;;13.80;2.60;;;;;;;10.02;87.37;99065.35;111446;1268;22292;-84
2024/03/30 06:03:47;;;;;;;15.90;2.10;;;;;;;10.06;87.37;99061.40;111492;1268;22999;-84
2024/03/30 06:06:38;;;;;;;10.70;1.90;;;;;;;10.11;87.66;99059.67;111250;1268;22895;-83
2024/03/30 06:09:29;;;;;;;13.50;2.00;;;;;;;10.16;87.77;99051.88;111272;1267;22554;-84
2024/03/30 06:12:20;;;;;;;10.10;1.50;;;;;;;10.24;88.28;99045.99;111343;1264;22166;-84
2024/03/30 06:15:13;;;;;;;11.20;1.70;;;;;;;10.31;88.30;99046.83;111590;1267;22202;-84
2024/03/30 06:18:04;;;;;;;14.10;1.60;;;;;;;10.40;88.62;99038.55;111588;1267;22673;-84
2024/03/30 06:20:55;;;;;;;15.20;2.10;;;;;;;10.48;88.51;99037.85;111612;1263;22188;-84
2024/03/30 06:24:00;;;;;;;9.90;1.90;;;;;;;10.55;88.51;99032.22;111596;1264;22230;-84
2024/03/30 06:26:51;;;;;;;13.90;2.10;;;;;;;10.62;88.35;99033.77;111448;1267;22512;-83
2024/03/30 06:29:43;;;;;;;12.30;1.80;;;;;;;10.70;88.55;99035.30;111346;1266;22223;-84
2024/03/30 06:32:34;;;;;;;9.40;1.70;;;;;;;10.79;89.01;99040.07;111312;1266;22243;-84
2024/03/30 06:35:26;;;;;;;11.70;1.50;;;;;;;10.89;89.57;99042.08;111610;1264;22620;-84
2024/03/30 06:38:17;;;;;;;16.60;2.00;;;;;;;11.01;89.57;99042.56;111582;1267;22196;-85
2024/03/30 06:44:38;;;;;;;10.90;1.60;;;;;;;11.27;90.09;99046.92;111334;1267;22388;-89
2024/03/30 06:47:31;;;;;;;12.90;1.40;;;;;;;11.43;90.14;99045.86;111723;1267;22157;-89
2024/03/30 06:50:24;;;;;;;10.60;1.50;;;;;;;11.55;90.00;99046.05;111673;1263;22213;-89
2024/03/30 06:53:20;;;;;;;8.60;1.20;;;;;;;11.69;89.91;99050.38;111500;1261;22349;-90
2024/03/30 06:56:30;;;;;;;12.60;1.20;;;;;;;11.85;89.79;99057.38;111397;1264;22260;-89
2024/03/30 06:59:21;;;;;;;10.00;1.30;;;;;;;11.99;89.51;99048.16;111363;1267;22848;-88
2024/03/30 07:02:14;;;;;;;9.40;1.40;;;;;;;12.13;89.22;99051.89;111707;1267;22988;-89
2024/03/30 07:05:10;;;;;;;13.80;2.00;;;;;;;12.25;88.96;99050.64;111349;1267;22204;-88
2024/03/30 07:08:15;;;;;;;10.30;1.00;;;;;;;12.40;88.95;99048.09;111663;1267;22796;-88
2024/03/30 07:11:19;;;;;;;9.70;1.10;;;;;;;12.54;89.01;99050.78;111326;1263;22216;-89
2024/03/30 07:14:16;;;;;;;8.50;1.00;;;;;;;12.68;88.49;99047.30;111656;1263;22242;-89
2024/03/30 07:17:09;;;;;;;9.80;1.30;;;;;;;12.83;88.17;99047.37;111044;1270;22229;-87
2024/03/30 07:20:01;;;;;;;10.00;1.00;;;;;;;12.97;87.71;99041.39;111008;1270;23086;-88
2024/03/30 07:22:57;;;;;;;13.80;1.20;;;;;;;13.08;87.46;99043.39;111007;1269;22179;-87
2024/03/30 07:25:54;;;;;;;13.30;1.40;;;;;;;13.18;87.17;99048.73;111161;1264;22139;-88
2024/03/30 07:28:45;;;;;;;13.10;2.00;;;;;;;13.25;86.82;99044.38;111195;1270;22245;-88
2024/03/30 07:31:37;;;;;;;12.40;1.80;;;;;;;13.33;86.81;99047.56;111028;1267;22237;-88
2024/03/30 07:34:30;;;;;;;15.40;1.40;;;;;;;13.42;86.79;99045.98;111157;1264;22943;-88
2024/03/30 07:37:24;;;;;;;14.90;2.00;;;;;;;13.53;86.66;99047.98;111169;1264;22172;-88
2024/03/30 07:40:17;;;;;;;19.70;1.60;;;;;;;13.67;86.46;99052.51;111147;1264;23191;-89
2024/03/30 07:43:10;;;;;;;10.90;1.50;;;;;;;13.79;86.14;99047.05;110956;1263;22191;-89
2024/03/30 07:46:07;;;;;;;14.30;1.70;;;;;;;13.97;85.30;99044.73;111184;1270;22195;-87
2024/03/30 07:48:58;;;;;;;20.80;4.50;;;;;;;14.15;84.88;99047.12;110919;1271;22867;-89
2024/03/30 07:51:49;;;;;;;20.40;3.30;;;;;;;14.30;84.38;99044.81;111195;1270;22769;-88
2024/03/30 07:54:41;;;;;;;20.10;1.60;;;;;;;14.46;83.38;99038.81;111086;1270;22215;-89
2024/03/30 07:57:33;;;;;;;17.30;2.30;;;;;;;14.62;82.52;99035.19;111194;1270;22178;-89
2024/03/30 08:00:33;;;;;;;16.00;1.90;;;;;;;14.75;82.26;99038.75;111029;1270;22236;-86
2024/03/30 08:03:28;;;;;;;20.90;2.10;;;;;;;14.89;81.92;99045.35;111176;1267;23051;-79
2024/03/30 08:06:18;;;;;;;18.90;1.60;;;;;;;15.02;81.80;99049.50;111135;1267;22195;-78
2024/03/30 08:09:08;;;;;;;;;;;;;;;15.19;81.10;99042.75;111149;1264;22425;-78
2024/03/30 08:11:58;;;;;;;19.10;1.90;;;;;;;15.37;81.03;99041.85;111188;1267;22260;-86
2024/03/30 08:14:49;;;;;;;17.70;1.90;;;;;;;15.50;80.06;99047.61;111124;1264;22280;-85
2024/03/30 08:17:42;;;;;;;21.80;2.30;;;;;;;15.63;79.57;99046.67;111148;1267;22967;-86
2024/03/30 08:20:33;;;;;;;22.50;2.30;;;;;;;15.73;79.22;99037.46;111141;1267;22911;-86
2024/03/30 08:23:25;;;;;;;22.80;2.90;;;;;;;15.82;78.75;99040.09;110972;1270;22188;-86
2024/03/30 08:26:16;;;;;;;17.20;1.50;;;;;;;15.90;78.63;99037.45;110909;1270;22205;-86
2024/03/30 08:29:07;;;;;;;19.60;1.90;;;;;;;16.00;78.22;99038.77;110913;1267;22219;-85
2024/03/30 08:31:59;;;;;;;25.60;2.20;;;;;;;16.09;77.30;99035.64;111189;1264;22309;-86
2024/03/30 08:34:51;;;;;;;16.50;1.60;;;;;;;16.20;77.19;99039.45;111158;1270;22155;-86
2024/03/30 08:37:42;;;;;;;20.00;2.20;;;;;;;16.31;76.44;99037.16;111143;1264;22144;-85
2024/03/30 08:40:35;;;;;;;25.90;3.10;;;;;;;16.39;76.45;99039.58;110789;1268;22222;-86
2024/03/30 08:43:26;;;;;;;20.40;2.30;;;;;;;16.48;75.74;99041.40;110935;1264;22304;-87
2024/03/30 08:46:17;;;;;;;17.30;1.70;;;;;;;16.56;75.36;99037.59;111178;1264;22315;-86
2024/03/30 08:49:12;;;;;;;27.10;1.90;;;;;;;16.64;75.42;99033.73;111123;1264;22329;-87
2024/03/30 08:52:05;;;;;;;17.90;1.30;;;;;;;16.71;75.32;99039.54;110894;1271;22204;-87
2024/03/30 08:54:56;;;;;;;19.00;2.00;;;;;;;16.80;74.93;99039.16;110871;1271;22239;-87
2024/03/30 08:57:48;;;;;;;26.20;2.30;;;;;;;16.86;74.49;99041.51;111168;1270;22217;-86
2024/03/30 09:00:41;;;;;;;19.80;1.80;;;;;;;16.94;73.35;99045.71;110869;1271;22257;-87
2024/03/30 09:03:34;;;;;;;17.30;2.10;;;;;;;17.05;73.08;99050.67;110911;1270;22244;-87
2024/03/30 09:06:26;;;;;;;21.70;1.80;;;;;;;17.16;73.17;99047.35;111164;1263;23067;-86
2024/03/30 09:09:18;;;;;;;24.80;2.20;;;;;;;17.26;72.79;99048.35;110926;1269;22760;-87
2024/03/30 09:12:11;;;;;;;17.90;1.90;;;;;;;17.34;71.95;99051.90;110953;1266;22240;-87
2024/03/30 09:15:02;;;;;;;17.40;1.60;;;;;;;17.38;70.82;99051.33;111067;1267;22306;-85
2024/03/30 09:17:55;;;;;;;20.60;2.10;;;;;;;17.40;70.59;99053.83;111107;1267;22223;-86
2024/03/30 09:20:48;;;;;;;18.60;2.50;;;;;;;17.45;70.75;99056.86;111073;1270;22224;-86
2024/03/30 09:23:39;;;;;;;27.60;2.80;;;;;;;17.51;70.33;99056.99;111026;1267;22673;-81
2024/03/30 09:26:29;;;;;;;16.90;2.30;;;;;;;17.57;70.15;99055.95;111008;1269;22432;-80
2024/03/30 09:29:20;;;;;;;25.40;2.90;;;;;;;17.63;69.70;99058.84;111167;1264;23158;-87
2024/03/30 09:32:12;;;;;;;25.00;3.10;;;;;;;17.69;69.50;99056.63;111097;1267;23041;-87
2024/03/30 09:35:05;;;;;;;27.10;3.30;;;;;;;17.74;68.85;99055.30;111106;1264;22365;-87
2024/03/30 09:37:56;;;;;;;22.60;2.60;;;;;;;17.78;68.86;99054.71;111069;1270;22235;-88
2024/03/30 09:40:52;;;;;;;27.90;2.60;;;;;;;17.84;68.39;99056.23;110867;1267;22226;-86
2024/03/30 09:43:46;;;;;;;26.90;3.30;;;;;;;17.92;67.78;99052.63;110877;1267;22307;-88
2024/03/30 09:46:41;;;;;;;32.20;3.90;;;;;;;17.99;67.49;99054.05;111140;1253;22995;-88
2024/03/30 09:49:35;;;;;;;26.10;3.10;;;;;;;18.06;67.07;99052.16;111137;1264;22226;-88
2024/03/30 09:52:33;;;;;;;27.00;3.70;;;;;;;18.14;66.60;99048.79;111130;1264;22911;-88
2024/03/30 09:55:27;;;;;;;36.30;3.60;;;;;;;18.23;66.40;99044.48;111112;1264;22304;-88
2024/03/30 09:58:20;;;;;;;35.10;3.60;;;;;;;18.34;66.09;99041.77;111184;1264;22220;-88
2024/03/30 10:01:12;;;;;;;38.70;4.40;;;;;;;18.46;65.59;99039.64;110980;1264;22543;-87
2024/03/30 10:04:09;;;;;;;38.10;4.20;;;;;;;18.56;65.00;99044.14;110952;1270;22236;-88
2024/03/30 10:07:05;;;;;;;40.20;5.20;;;;;;;18.67;64.92;99042.49;111130;1269;23082;-88
2024/03/30 10:10:04;;;;;;;32.10;4.50;;;;;;;18.76;64.34;99043.27;110894;1266;23123;-88
2024/03/30 10:13:02;;;;;;;45.40;5.30;;;;;;;18.87;64.40;99041.69;111001;1271;22962;-87
2024/03/30 10:15:55;;;;;;;50.60;6.00;;;;;;;18.97;64.24;99038.85;111032;1271;22263;-87
2024/03/30 10:18:49;;;;;;;33.70;3.90;;;;;;;19.11;63.90;99029.91;111044;1271;22917;-88
2024/03/30 10:21:40;;;;;;;46.60;5.50;;;;;;;19.24;63.77;99021.86;110884;1267;22243;-88
2024/03/30 10:24:34;;;;;;;36.10;4.70;;;;;;;19.31;62.93;99009.79;111161;1267;22712;-87
2024/03/30 10:27:25;;;;;;;39.10;6.00;;;;;;;19.39;62.56;99004.50;111123;1257;22146;-88
2024/03/30 10:30:20;;;;;;;36.30;5.00;;;;;;;19.47;62.13;99001.39;110970;1266;22195;-88
2024/03/30 10:33:14;;;;;;;44.90;5.90;;;;;;;19.54;61.72;99004.05;111127;1260;23240;-88
2024/03/30 10:36:13;;;;;;;44.20;4.60;;;;;;;19.62;61.54;99009.56;111134;1270;22276;-88
2024/03/30 10:39:06;;;;;;;42.70;5.50;;;;;;;19.70;61.08;99014.04;110983;1260;22684;-87
2024/03/30 10:41:58;;;;;;;50.20;5.60;;;;;;;19.77;60.49;99019.17;111011;1266;22956;-87
2024/03/30 10:44:55;;;;;;;47.10;6.50;;;;;;;19.83;59.62;99017.31;111166;1263;22899;-88
2024/03/30 10:47:46;;;;;;;43.50;5.70;;;;;;;19.86;59.49;99009.10;111139;1266;23277;-87
2024/03/30 10:50:38;;;;;;;44.00;5.80;;;;;;;19.91;58.36;99018.56;111123;1270;22968;-87
2024/03/30 10:53:30;;;;;;;51.50;5.40;;;;;;;19.96;58.54;99024.96;111123;1257;22378;-87
2024/03/30 10:56:23;;;;;;;40.20;6.10;;;;;;;20.02;57.90;99027.35;111113;1264;22221;-87
2024/03/30 10:59:18;;;;;;;52.20;6.20;;;;;;;20.08;57.38;99028.64;111150;1267;22255;-88
2024/03/30 11:02:18;;;;;;;50.70;6.10;;;;;;;20.16;57.14;99028.49;110973;1270;22185;-87
2024/03/30 11:05:15;;;;;;;30.90;4.70;;;;;;;20.24;56.94;99029.73;111086;1269;23265;-87
2024/03/30 11:08:10;;;;;;;55.40;7.10;;;;;;;20.31;56.69;99027.80;111063;1269;22215;-87
2024/03/30 11:11:03;;;;;;;52.00;7.50;;;;;;;20.39;56.07;99019.44;111130;1267;22280;-88
2024/03/30 11:13:55;;;;;;;46.10;7.30;;;;;;;20.42;55.90;99024.38;111141;1260;22184;-89
2024/03/30 11:16:51;;;;;;;47.30;7.00;;;;;;;20.45;55.39;99017.99;110924;1270;23574;-88
2024/03/30 11:19:47;;;;;;;45.50;7.40;;;;;;;20.44;55.09;99017.52;110972;1263;22390;-87
2024/03/30 11:22:58;;;;;;;38.90;7.90;;;;;;;20.45;54.99;99016.51;111133;1263;22252;-88
2024/03/30 11:25:58;;;;;;;54.50;10.30;;;;;;;20.47;55.06;99017.04;110977;1266;22373;-87
2024/03/30 11:28:58;;;;;;;48.90;8.60;;;;;;;20.53;54.46;99013.06;110964;1266;22268;-88
2024/03/30 11:31:56;;;;;;;46.80;8.30;;;;;;;20.61;54.47;99006.51;111109;1263;22947;-87
2024/03/30 11:34:59;;;;;;;46.20;6.70;;;;;;;20.69;53.76;99003.65;111148;1270;22243;-89
2024/03/30 11:38:03;;;;;;;53.30;7.70;;;;;;;20.78;53.37;98999.20;111056;1266;23094;-88
2024/03/30 11:41:01;;;;;;;53.40;9.40;;;;;;;20.87;53.31;98994.69;111156;1257;22230;-88
2024/03/30 11:44:03;;;;;;;52.00;7.10;;;;;;;20.95;52.71;98991.47;111161;1263;22228;-88
2024/03/30 11:46:56;;;;;;;52.50;8.80;;;;;;;21.04;52.39;98985.65;111205;1264;22196;-88
2024/03/30 11:49:51;;;;;;;56.90;9.20;;;;;;;21.12;52.09;98982.61;111148;1267;22252;-88
2024/03/30 11:52:50;;;;;;;57.80;8.70;;;;;;;21.17;52.16;98965.62;110986;1266;22356;-89
2024/03/30 11:55:46;;;;;;;68.40;9.30;;;;;;;21.24;52.26;98955.47;111159;1263;22599;-89
2024/03/30 11:58:41;;;;;;;50.70;9.10;;;;;;;21.30;52.02;98952.95;111121;1263;22230;-89
2024/03/30 12:01:33;;;;;;;59.50;9.00;;;;;;;21.35;51.65;98951.08;109731;1263;1890001;-88
2024/03/30 12:04:26;;;;;;;53.90;8.70;;;;;;;21.40;51.13;98956.63;111108;1264;22266;-88
2024/03/30 12:07:21;;;;;;;56.30;11.50;;;;;;;21.47;51.10;98950.83;111076;1263;22185;-88
2024/03/30 12:10:15;;;;;;;54.20;9.90;;;;;;;21.54;50.44;98954.50;110838;1264;22305;-88
2024/03/30 12:13:11;;;;;;;60.90;9.20;;;;;;;21.58;50.60;98952.33;111123;1264;23175;-88
2024/03/30 12:16:03;;;;;;;60.20;11.80;;;;;;;21.64;50.36;98954.90;111170;1270;22185;-89
2024/03/30 12:18:57;;;;;;;89.70;36.90;;;;;;;21.70;49.88;98952.43;111146;1263;22971;-88
2024/03/30 12:21:50;;;;;;;136.40;81.00;;;;;;;21.73;49.19;98946.02;110914;1270;22248;-89
2024/03/30 12:24:43;;;;;;;167.50;101.70;;;;;;;21.75;49.31;98941.62;110836;1271;22900;-89
2024/03/30 12:27:38;;;;;;;234.90;194.80;;;;;;;21.78;48.72;98929.91;111162;1267;22115;-89
2024/03/30 12:30:31;;;;;;;174.20;113.10;;;;;;;21.83;48.56;98924.67;110908;1263;22438;-87
2024/03/30 12:33:22;;;;;;;100.40;51.40;;;;;;;21.87;48.05;98918.27;111075;1264;22979;-88
2024/03/30 12:36:15;;;;;;;87.10;25.50;;;;;;;21.89;48.00;98908.65;110875;1269;23125;-91
2024/03/30 12:39:22;;;;;;;63.80;15.90;;;;;;;21.92;47.84;98900.65;111048;1270;22341;-88
2024/03/30 12:42:19;;;;;;;61.90;12.70;;;;;;;21.95;47.97;98894.81;111089;1271;22218;-90
2024/03/30 12:45:13;;;;;;;62.10;10.20;;;;;;;21.99;47.66;98881.58;110996;1270;22236;-91
2024/03/30 12:48:11;;;;;;;67.50;10.10;;;;;;;22.04;47.10;98872.90;110895;1267;22228;-89
2024/03/30 12:51:03;;;;;;;65.20;10.20;;;;;;;22.10;47.34;98870.13;111002;1266;22466;-81
2024/03/30 12:53:56;;;;;;;63.80;11.50;;;;;;;22.14;47.33;98865.48;111068;1264;22330;-87
2024/03/30 12:56:48;;;;;;;66.80;10.70;;;;;;;22.14;46.78;98856.94;111164;1270;22312;-88
2024/03/30 12:59:40;;;;;;;50.20;8.40;;;;;;;22.14;47.28;98854.96;111089;1266;22221;-88
2024/03/30 13:02:32;;;;;;;68.20;12.10;;;;;;;22.17;46.82;98855.19;111138;1263;22217;-87
2024/03/30 13:05:27;;;;;;;57.70;10.60;;;;;;;22.18;46.24;98854.56;110804;1266;22338;-88
2024/03/30 13:08:21;;;;;;;63.30;10.00;;;;;;;22.20;46.08;98853.39;111143;1266;22225;-88
2024/03/30 13:11:12;;;;;;;52.40;9.70;;;;;;;22.22;45.62;98855.30;111073;1264;22286;-87
2024/03/30 13:14:04;;;;;;;68.30;9.40;;;;;;;22.21;45.25;98856.45;110930;1265;22368;-87
2024/03/30 13:17:05;;;;;;;55.40;9.70;;;;;;;22.20;45.18;98855.28;111077;1270;23325;-87
2024/03/30 13:19:58;;;;;;;55.20;10.10;;;;;;;22.21;45.28;98853.92;111163;1270;22846;-87
2024/03/30 13:22:50;;;;;;;73.50;11.00;;;;;;;22.19;45.19;98850.80;111054;1267;22293;-87